Time;durP1;ratioP1;P1;durP2;ratioP2;P2;SDS_P1;SDS_P2;PMS_P1;PMS_P2;Temp;Humidity;BMP_temperature;BMP_pressure;BME280_temperature;BME280_humidity;BME280_pressure;Samples;Min_cycle;Max_cycle;Signal;HPM_P1;HPM_P2
2022/02/21 00:00:55;;;;;;;0.80;0.30;;;9.30;67.30;;;;;;5047192;28;20025;-85
2022/02/21 00:03:21;;;;;;;1.13;0.30;;;9.30;67.40;;;;;;5052046;28;20057;-83
2022/02/21 00:05:50;;;;;;;1.60;0.35;;;9.30;67.40;;;;;;5048955;28;20021;-83
2022/02/21 00:08:17;;;;;;;0.43;0.28;;;9.40;67.50;;;;;;5052506;28;20073;-85
2022/02/21 00:10:43;;;;;;;1.17;0.25;;;9.40;67.40;;;;;;5050772;28;20442;-84
2022/02/21 00:13:08;;;;;;;0.52;0.20;;;9.40;67.50;;;;;;5048576;28;20086;-85
2022/02/21 00:15:34;;;;;;;0.28;0.20;;;9.30;67.60;;;;;;5050029;28;20025;-83
2022/02/21 00:18:01;;;;;;;0.75;0.20;;;9.40;67.60;;;;;;5048300;28;20029;-84
2022/02/21 00:20:27;;;;;;;0.45;0.28;;;9.40;67.90;;;;;;5048248;28;20026;-82
2022/02/21 00:22:52;;;;;;;0.28;0.20;;;9.30;67.90;;;;;;5045902;28;20108;-83
2022/02/21 00:25:18;;;;;;;1.02;0.20;;;9.30;68.20;;;;;;5047092;28;20044;-82
2022/02/21 00:27:44;;;;;;;0.57;0.10;;;9.30;68.30;;;;;;5048238;28;20025;-84
2022/02/21 00:30:10;;;;;;;0.10;0.10;;;9.20;68.50;;;;;;5046227;28;20037;-85
2022/02/21 00:32:36;;;;;;;0.30;0.20;;;9.20;68.40;;;;;;5044535;28;20077;-83
2022/02/21 00:35:03;;;;;;;1.27;0.50;;;9.20;68.50;;;;;;5047290;28;20044;-82
2022/02/21 00:37:29;;;;;;;0.52;0.20;;;9.20;68.60;;;;;;5047288;28;20060;-85
2022/02/21 00:39:54;;;;;;;0.20;0.20;;;9.20;68.50;;;;;;5046824;28;20032;-84
2022/02/21 00:42:52;;;;;;;0.20;0.20;;;9.20;68.70;;;;;;5048579;28;20022;-83
2022/02/21 00:45:18;;;;;;;0.20;0.20;;;9.20;68.80;;;;;;5046498;28;20048;-83
2022/02/21 00:47:44;;;;;;;0.50;0.20;;;9.10;68.90;;;;;;5048072;28;20049;-82
2022/02/21 00:50:10;;;;;;;1.55;0.10;;;9.20;68.80;;;;;;5048149;28;20076;-84
2022/02/21 00:52:36;;;;;;;0.40;0.30;;;9.20;68.70;;;;;;5032800;28;20068;-82
2022/02/21 00:55:02;;;;;;;0.30;0.20;;;9.20;68.70;;;;;;5027002;28;20049;-82
2022/02/21 00:57:28;;;;;;;0.63;0.15;;;9.20;68.60;;;;;;5031149;28;20028;-85
2022/02/21 00:59:54;;;;;;;0.40;0.20;;;9.20;68.50;;;;;;5036788;28;20022;-83
2022/02/21 01:02:20;;;;;;;0.20;0.20;;;9.30;68.20;;;;;;5038632;28;20040;-87
2022/02/21 01:04:45;;;;;;;0.30;0.20;;;9.30;67.90;;;;;;5037559;28;20014;-86
2022/02/21 01:07:11;;;;;;;0.10;0.10;;;9.30;67.70;;;;;;5036369;28;20018;-87
2022/02/21 01:09:37;;;;;;;0.35;0.10;;;9.40;67.40;;;;;;5036072;28;20040;-87
2022/02/21 01:12:03;;;;;;;0.20;0.20;;;9.40;67.10;;;;;;5033053;28;20045;-82
2022/02/21 01:14:29;;;;;;;0.40;0.20;;;9.40;66.80;;;;;;5028613;28;20030;-83
2022/02/21 01:16:54;;;;;;;0.30;0.17;;;9.50;66.70;;;;;;5028381;28;20438;-82
2022/02/21 01:19:20;;;;;;;0.10;0.10;;;9.50;66.60;;;;;;5026830;28;20042;-83
2022/02/21 01:21:46;;;;;;;0.25;0.10;;;9.50;66.40;;;;;;5026602;28;20022;-82
2022/02/21 01:24:12;;;;;;;0.10;0.10;;;9.60;66.00;;;;;;5045393;28;20028;-83
2022/02/21 01:26:38;;;;;;;0.28;0.15;;;9.50;65.80;;;;;;5050683;28;20109;-83
2022/02/21 01:29:03;;;;;;;1.65;0.10;;;9.60;65.60;;;;;;5048930;28;20029;-84
2022/02/21 01:31:30;;;;;;;0.50;0.20;;;9.70;65.30;;;;;;5049611;28;20102;-84
2022/02/21 01:33:56;;;;;;;0.20;0.20;;;9.70;65.00;;;;;;5053533;28;20028;-80
2022/02/21 01:36:22;;;;;;;1.15;0.22;;;9.70;65.00;;;;;;5051608;28;20029;-82
2022/02/21 01:38:48;;;;;;;0.70;0.20;;;9.80;65.00;;;;;;5048144;28;20041;-84
2022/02/21 01:41:14;;;;;;;0.35;0.35;;;9.80;64.90;;;;;;5049308;28;20051;-84
2022/02/21 01:43:39;;;;;;;0.73;0.30;;;9.70;64.90;;;;;;5046858;28;20129;-82
2022/02/21 01:46:05;;;;;;;0.60;0.22;;;9.80;64.80;;;;;;5050813;28;20048;-84
2022/02/21 01:48:31;;;;;;;1.50;0.28;;;9.80;64.60;;;;;;5052838;28;20411;-84
2022/02/21 01:50:57;;;;;;;1.27;0.50;;;9.80;64.50;;;;;;5053036;28;20026;-86
2022/02/21 01:53:23;;;;;;;0.40;0.30;;;9.80;64.50;;;;;;5038583;28;20413;-82
2022/02/21 01:55:50;;;;;;;1.48;0.35;;;9.80;64.50;;;;;;5047373;28;20034;-83
2022/02/21 01:58:16;;;;;;;1.50;0.30;;;9.80;64.40;;;;;;5045449;28;20030;-82
2022/02/21 02:00:42;;;;;;;1.20;0.22;;;9.80;64.60;;;;;;5046237;28;20060;-83
2022/02/21 02:03:07;;;;;;;0.80;0.22;;;9.70;64.40;;;;;;5053959;28;20029;-85
2022/02/21 02:05:33;;;;;;;0.40;0.30;;;9.80;64.40;;;;;;5056252;28;20075;-84
2022/02/21 02:08:00;;;;;;;3.42;0.75;;;9.70;64.50;;;;;;5056099;28;20044;-87
2022/02/21 02:10:26;;;;;;;1.67;0.52;;;9.70;64.50;;;;;;5052622;28;20037;-82
2022/02/21 02:12:52;;;;;;;1.20;0.43;;;9.70;64.60;;;;;;5047483;28;20025;-80
2022/02/21 02:15:19;;;;;;;1.23;0.30;;;9.70;64.50;;;;;;5045384;28;20044;-83
2022/02/21 02:17:45;;;;;;;0.28;0.20;;;9.70;64.60;;;;;;5044391;28;20030;-82
2022/02/21 02:20:12;;;;;;;0.73;0.30;;;9.70;64.40;;;;;;5046412;28;20117;-83
2022/02/21 02:22:40;;;;;;;0.60;0.38;;;9.70;64.00;;;;;;5042457;28;20056;-82
2022/02/21 02:25:06;;;;;;;3.20;0.90;;;9.80;63.70;;;;;;5046473;28;20021;-84
2022/02/21 02:27:32;;;;;;;1.38;0.38;;;9.80;63.20;;;;;;5044881;28;20124;-83
2022/02/21 02:29:59;;;;;;;0.98;0.30;;;9.90;62.90;;;;;;5047443;28;20029;-81
2022/02/21 02:32:25;;;;;;;1.02;0.22;;;9.90;62.70;;;;;;5046128;28;20041;-83
2022/02/21 02:34:52;;;;;;;0.82;0.25;;;9.90;62.70;;;;;;5034764;28;20079;-84
2022/02/21 02:37:21;;;;;;;1.48;0.30;;;9.90;62.60;;;;;;5038704;28;20471;-82
2022/02/21 02:39:47;;;;;;;0.38;0.30;;;9.90;62.70;;;;;;5047229;28;20041;-84
2022/02/21 02:42:13;;;;;;;1.67;0.13;;;10.00;62.30;;;;;;5049446;28;20026;-83
2022/02/21 02:44:38;;;;;;;1.23;0.40;;;10.10;62.10;;;;;;5045918;28;20026;-81
2022/02/21 02:47:08;;;;;;;0.30;0.20;;;10.10;61.70;;;;;;5053552;22;20037;-78
2022/02/21 02:49:35;;;;;;;1.05;0.30;;;10.10;61.60;;;;;;5034425;28;20500;-78
2022/02/21 02:52:01;;;;;;;0.75;0.35;;;10.10;61.50;;;;;;5039270;28;20055;-78
2022/02/21 02:54:26;;;;;;;2.10;0.35;;;10.10;61.30;;;;;;5039234;28;20074;-79
2022/02/21 02:56:52;;;;;;;0.25;0.25;;;10.10;61.20;;;;;;5039527;28;20025;-79
2022/02/21 02:59:18;;;;;;;0.85;0.38;;;10.20;61.10;;;;;;5040445;28;20028;-78
2022/02/21 03:01:43;;;;;;;5.22;0.38;;;10.20;60.90;;;;;;5033007;28;20018;-79
2022/02/21 03:04:09;;;;;;;0.90;0.28;;;10.20;60.70;;;;;;5039335;28;20081;-79
2022/02/21 03:06:36;;;;;;;3.13;0.50;;;10.30;60.50;;;;;;5039121;28;20022;-79
2022/02/21 03:09:03;;;;;;;0.40;0.20;;;10.30;60.40;;;;;;5040558;28;20029;-79
2022/02/21 03:11:28;;;;;;;1.50;0.70;;;10.20;60.30;;;;;;5038890;28;20429;-79
2022/02/21 03:13:59;;;;;;;1.08;0.35;;;10.20;60.30;;;;;;5039092;28;20025;-79
2022/02/21 03:16:26;;;;;;;2.50;0.40;;;10.30;60.20;;;;;;5040762;28;20025;-79
2022/02/21 03:18:52;;;;;;;1.25;0.50;;;10.30;59.90;;;;;;5038022;28;20346;-79
2022/02/21 03:21:17;;;;;;;2.10;0.98;;;10.40;59.90;;;;;;5038836;28;20077;-79
2022/02/21 03:23:43;;;;;;;1.83;0.38;;;10.30;59.80;;;;;;5039386;28;20067;-79
2022/02/21 03:26:09;;;;;;;2.70;0.40;;;10.40;59.70;;;;;;5037116;28;20025;-78
2022/02/21 03:28:34;;;;;;;0.90;0.30;;;10.40;59.50;;;;;;5047252;28;20021;-77
2022/02/21 03:31:00;;;;;;;0.73;0.20;;;10.40;59.30;;;;;;5047427;28;20400;-77
2022/02/21 03:33:26;;;;;;;0.40;0.40;;;10.40;59.30;;;;;;5052879;28;20044;-77
2022/02/21 03:35:51;;;;;;;2.55;0.30;;;10.40;59.30;;;;;;5054811;28;20029;-77
2022/02/21 03:38:17;;;;;;;0.55;0.20;;;10.40;59.30;;;;;;5054414;28;20025;-77
2022/02/21 03:40:44;;;;;;;2.20;1.50;;;10.40;59.40;;;;;;5057215;28;20016;-78
2022/02/21 03:43:10;;;;;;;0.28;0.25;;;10.40;59.50;;;;;;5048885;28;20030;-77
2022/02/21 03:45:36;;;;;;;1.63;0.55;;;10.40;59.50;;;;;;5045979;28;20033;-77
2022/02/21 03:48:02;;;;;;;1.65;0.38;;;10.40;59.60;;;;;;5044772;28;20402;-77
2022/02/21 03:50:28;;;;;;;0.40;0.10;;;10.40;59.50;;;;;;5048648;28;20025;-78
2022/02/21 03:52:54;;;;;;;0.70;0.17;;;10.50;59.70;;;;;;5048394;28;20041;-78
2022/02/21 03:55:20;;;;;;;1.48;0.40;;;10.40;59.90;;;;;;5048098;28;20029;-77
2022/02/21 03:57:46;;;;;;;0.20;0.20;;;10.40;59.90;;;;;;5049441;28;20033;-78
2022/02/21 04:00:13;;;;;;;0.55;0.22;;;10.50;60.10;;;;;;5041538;28;20470;-78
2022/02/21 04:02:39;;;;;;;1.90;0.20;;;10.40;60.00;;;;;;5047968;28;20026;-78
2022/02/21 04:05:06;;;;;;;0.90;0.30;;;10.40;60.20;;;;;;5048533;28;20014;-78
2022/02/21 04:07:32;;;;;;;1.33;0.30;;;10.40;60.00;;;;;;5047718;28;20127;-78
2022/02/21 04:09:58;;;;;;;1.33;0.38;;;10.40;60.20;;;;;;5042075;28;20053;-79
2022/02/21 04:12:24;;;;;;;0.65;0.30;;;10.40;60.20;;;;;;5042866;28;20030;-78
2022/02/21 04:14:49;;;;;;;0.50;0.20;;;10.50;60.20;;;;;;5041978;28;20030;-79
2022/02/21 04:17:15;;;;;;;2.20;0.22;;;10.40;60.40;;;;;;5041721;28;20043;-78
2022/02/21 04:19:41;;;;;;;2.95;0.32;;;10.40;60.60;;;;;;5041062;28;20035;-81
2022/02/21 04:22:11;;;;;;;1.00;0.30;;;10.40;61.00;;;;;;5039805;28;20040;-78
2022/02/21 04:24:38;;;;;;;0.43;0.13;;;10.40;61.10;;;;;;5038198;28;20414;-77
2022/02/21 04:27:04;;;;;;;0.35;0.25;;;10.30;61.50;;;;;;5041193;28;20420;-77
2022/02/21 04:29:30;;;;;;;1.08;0.10;;;10.20;62.00;;;;;;5027846;28;20037;-79
2022/02/21 04:31:56;;;;;;;0.25;0.20;;;10.10;62.70;;;;;;5027178;28;20021;-78
2022/02/21 04:34:21;;;;;;;0.63;0.20;;;10.10;63.20;;;;;;5042459;28;20025;-77
2022/02/21 04:36:47;;;;;;;1.15;0.30;;;10.10;63.70;;;;;;5040361;28;20095;-78
2022/02/21 04:39:13;;;;;;;0.28;0.10;;;10.00;64.10;;;;;;5039984;28;20033;-78
2022/02/21 04:41:39;;;;;;;0.88;0.13;;;10.00;64.40;;;;;;5042154;28;20030;-78
2022/02/21 04:44:05;;;;;;;1.55;0.30;;;9.90;65.00;;;;;;5039234;28;20033;-77
2022/02/21 04:46:30;;;;;;;1.45;0.20;;;9.80;65.40;;;;;;5040353;28;20026;-79
2022/02/21 04:48:56;;;;;;;0.52;0.20;;;9.70;65.90;;;;;;5038427;28;20426;-77
2022/02/21 04:51:22;;;;;;;1.80;0.20;;;9.60;66.40;;;;;;5040692;28;20040;-79
2022/02/21 04:53:48;;;;;;;1.67;0.32;;;9.70;66.60;;;;;;5040201;28;20031;-77
2022/02/21 04:56:14;;;;;;;0.88;0.17;;;9.60;66.80;;;;;;5039508;28;20545;-78
2022/02/21 04:58:40;;;;;;;0.60;0.20;;;9.50;67.20;;;;;;5027987;28;20038;-80
2022/02/21 05:01:06;;;;;;;0.45;0.22;;;9.40;67.70;;;;;;5031883;28;20394;-82
2022/02/21 05:03:31;;;;;;;1.52;0.82;;;9.40;68.00;;;;;;5048203;28;20021;-81
2022/02/21 05:05:57;;;;;;;1.60;0.17;;;9.30;68.20;;;;;;5044570;28;20030;-82
2022/02/21 05:08:25;;;;;;;0.38;0.10;;;9.20;68.50;;;;;;5044370;28;20036;-82
2022/02/21 05:10:50;;;;;;;3.50;0.50;;;9.20;68.80;;;;;;5043627;28;20033;-82
2022/02/21 05:13:16;;;;;;;0.20;0.20;;;9.20;69.00;;;;;;5044229;28;20068;-81
2022/02/21 05:15:42;;;;;;;0.22;0.10;;;9.10;69.20;;;;;;5044038;28;20386;-81
2022/02/21 05:18:07;;;;;;;1.35;0.30;;;9.10;69.50;;;;;;5043493;28;20120;-81
2022/02/21 05:20:33;;;;;;;1.85;0.15;;;9.00;69.60;;;;;;5046659;28;20417;-79
2022/02/21 05:23:00;;;;;;;0.38;0.22;;;9.00;70.60;;;;;;5042828;28;20057;-82
2022/02/21 05:25:26;;;;;;;1.27;0.17;;;9.00;70.30;;;;;;5043479;28;20060;-81
2022/02/21 05:27:51;;;;;;;1.02;0.30;;;8.90;70.60;;;;;;5044432;28;20386;-80
2022/02/21 05:30:17;;;;;;;0.75;0.20;;;8.90;70.70;;;;;;5048715;28;20030;-79
2022/02/21 05:32:44;;;;;;;0.10;0.10;;;8.90;71.00;;;;;;5052833;28;20025;-79
2022/02/21 05:35:10;;;;;;;0.45;0.10;;;8.80;71.40;;;;;;5035408;28;20057;-79
2022/02/21 05:37:38;;;;;;;0.50;0.13;;;8.90;71.40;;;;;;5033349;28;20026;-80
2022/02/21 05:40:05;;;;;;;0.25;0.10;;;9.00;71.30;;;;;;5031136;28;20029;-80
2022/02/21 05:42:31;;;;;;;0.50;0.40;;;9.00;71.40;;;;;;5023825;28;20030;-81
2022/02/21 05:44:57;;;;;;;0.10;0.10;;;9.00;71.50;;;;;;5022416;28;20033;-80
2022/02/21 05:47:23;;;;;;;0.00;0.00;;;9.00;71.60;;;;;;5022918;28;20038;-80
2022/02/21 05:49:49;;;;;;;0.70;0.10;;;9.00;71.60;;;;;;5025477;28;20021;-81
2022/02/21 05:52:14;;;;;;;0.20;0.20;;;9.10;71.70;;;;;;5028113;28;20037;-81
2022/02/21 05:54:40;;;;;;;0.70;0.22;;;9.10;71.50;;;;;;5028602;28;20041;-80
2022/02/21 05:57:06;;;;;;;0.28;0.20;;;9.20;71.30;;;;;;5027356;28;20105;-80
2022/02/21 05:59:33;;;;;;;0.70;0.30;;;9.20;71.30;;;;;;5033731;28;20045;-80
2022/02/21 06:01:59;;;;;;;4.22;0.20;;;9.30;71.20;;;;;;5049564;28;20014;-81
2022/02/21 06:04:24;;;;;;;1.45;0.10;;;9.40;71.20;;;;;;5048091;28;20057;-81
2022/02/21 06:06:50;;;;;;;0.77;0.10;;;8.40;75.30;;;;;;5059437;28;20028;-82
2022/02/21 06:09:16;;;;;;;1.45;0.10;;;6.90;81.40;;;;;;5043665;28;20021;-81
2022/02/21 06:11:41;;;;;;;0.22;0.20;;;5.20;87.10;;;;;;5023011;28;20025;-81
2022/02/21 06:14:07;;;;;;;0.40;0.17;;;4.00;92.80;;;;;;5022926;28;20165;-80
2022/02/21 06:16:33;;;;;;;1.05;0.22;;;3.20;97.00;;;;;;5021447;28;20021;-80
2022/02/21 06:19:00;;;;;;;0.90;0.20;;;2.70;99.90;;;;;;5020961;28;20072;-80
2022/02/21 06:21:25;;;;;;;0.88;0.30;;;2.40;99.90;;;;;;5021738;28;20381;-80
2022/02/21 06:23:51;;;;;;;1.67;0.20;;;2.20;99.90;;;;;;5021316;28;20049;-80
2022/02/21 06:26:17;;;;;;;1.67;0.40;;;2.10;99.90;;;;;;5024752;28;20048;-81
2022/02/21 06:28:43;;;;;;;2.65;0.40;;;2.00;99.90;;;;;;5031536;28;20081;-79
2022/02/21 06:31:09;;;;;;;1.27;0.30;;;1.90;99.90;;;;;;5040032;28;20036;-80
2022/02/21 06:33:36;;;;;;;4.22;0.50;;;1.90;99.90;;;;;;5042825;28;20482;-79
2022/02/21 06:36:03;;;;;;;2.65;0.38;;;1.80;99.90;;;;;;5041063;28;20044;-79
2022/02/21 06:38:29;;;;;;;2.28;0.50;;;1.80;99.90;;;;;;5041839;28;20094;-81
2022/02/21 06:40:54;;;;;;;2.95;0.60;;;1.80;99.90;;;;;;5045284;28;20103;-79
2022/02/21 06:43:22;;;;;;;1.27;0.70;;;1.90;99.90;;;;;;5047298;28;20026;-81
2022/02/21 06:45:48;;;;;;;5.57;0.70;;;1.90;99.90;;;;;;5045910;28;20072;-80
2022/02/21 06:48:14;;;;;;;7.25;0.80;;;2.00;99.90;;;;;;5026338;28;20034;-82
2022/02/21 06:50:40;;;;;;;4.53;0.82;;;2.00;99.90;;;;;;5023806;28;20014;-82
2022/02/21 06:53:06;;;;;;;3.40;0.82;;;2.10;99.90;;;;;;5023500;28;20022;-82
2022/02/21 06:55:32;;;;;;;1.80;0.75;;;2.20;99.90;;;;;;5022908;28;20034;-81
2022/02/21 06:57:57;;;;;;;6.93;1.70;;;2.20;99.90;;;;;;5023149;28;20037;-82
2022/02/21 07:00:23;;;;;;;1.50;0.65;;;2.30;99.90;;;;;;5030894;28;20078;-81
2022/02/21 07:02:51;;;;;;;3.50;0.95;;;2.40;99.90;;;;;;5047796;28;20028;-81
2022/02/21 07:05:17;;;;;;;3.80;0.80;;;2.50;99.90;;;;;;5039669;28;20037;-82
2022/02/21 07:07:44;;;;;;;1.17;1.00;;;2.60;99.90;;;;;;5034305;28;20105;-81
2022/02/21 07:10:10;;;;;;;1.98;0.60;;;2.70;99.90;;;;;;5025029;28;20026;-82
2022/02/21 07:12:36;;;;;;;2.38;0.80;;;2.80;99.90;;;;;;5037815;28;20036;-81
2022/02/21 07:15:03;;;;;;;2.05;0.47;;;2.80;99.90;;;;;;5022147;28;20121;-80
2022/02/21 07:17:35;;;;;;;3.13;0.82;;;2.80;99.90;;;;;;5021464;28;20026;-81
2022/02/21 07:20:01;;;;;;;3.38;0.60;;;2.70;99.90;;;;;;5024775;28;20030;-81
2022/02/21 07:22:26;;;;;;;7.63;0.82;;;2.70;99.90;;;;;;5023490;28;20497;-80
2022/02/21 07:24:52;;;;;;;5.30;0.88;;;2.80;99.90;;;;;;5020901;28;20097;-81
2022/02/21 07:27:18;;;;;;;2.05;0.85;;;2.80;99.90;;;;;;5022646;28;20025;-81
2022/02/21 07:29:43;;;;;;;4.70;1.10;;;2.80;99.90;;;;;;5021061;28;20029;-81
2022/02/21 07:32:09;;;;;;;2.70;0.73;;;2.90;99.90;;;;;;5022841;28;20022;-81
2022/02/21 07:34:35;;;;;;;1.50;0.65;;;3.00;99.90;;;;;;5044127;28;20031;-83
2022/02/21 07:37:01;;;;;;;1.02;0.50;;;3.20;99.90;;;;;;5044467;28;20021;-84
2022/02/21 07:39:30;;;;;;;3.45;0.52;;;3.30;99.90;;;;;;5046252;28;20482;-84
2022/02/21 07:41:57;;;;;;;2.78;0.93;;;3.40;99.90;;;;;;5037019;28;20022;-82
2022/02/21 07:44:23;;;;;;;1.00;0.90;;;3.30;99.90;;;;;;5017486;28;20100;-81
2022/02/21 07:46:50;;;;;;;8.18;0.70;;;3.20;99.90;;;;;;5017653;28;20026;-81
2022/02/21 07:49:16;;;;;;;2.70;0.70;;;3.20;99.90;;;;;;5022719;28;20030;-81
2022/02/21 07:51:42;;;;;;;3.10;0.95;;;3.20;99.90;;;;;;5030812;28;20022;-81
2022/02/21 07:54:07;;;;;;;4.05;1.05;;;3.20;99.90;;;;;;5019478;28;20022;-84
2022/02/21 07:56:33;;;;;;;4.40;1.00;;;3.30;99.90;;;;;;5025091;28;20030;-81
2022/02/21 07:58:59;;;;;;;0.50;0.50;;;3.30;99.90;;;;;;5018909;28;20084;-84
2022/02/21 08:01:24;;;;;;;5.80;1.10;;;3.30;99.90;;;;;;5024822;28;20045;-80
2022/02/21 08:03:50;;;;;;;3.60;1.02;;;3.30;99.90;;;;;;5039845;28;20033;-80
2022/02/21 08:06:16;;;;;;;1.77;0.57;;;3.30;99.90;;;;;;5040619;28;20014;-81
2022/02/21 08:08:41;;;;;;;1.75;0.60;;;3.30;99.90;;;;;;5034234;28;20411;-80
2022/02/21 08:11:07;;;;;;;2.67;0.60;;;3.30;99.90;;;;;;5040655;28;20025;-80
2022/02/21 08:13:33;;;;;;;3.28;1.90;;;3.40;99.90;;;;;;5040163;28;20119;-81
2022/02/21 08:15:59;;;;;;;2.10;0.93;;;3.50;99.90;;;;;;5032415;28;20029;-82
2022/02/21 08:18:26;;;;;;;2.40;1.08;;;3.60;99.90;;;;;;5027820;28;20029;-81
2022/02/21 08:20:53;;;;;;;1.95;0.93;;;3.80;99.90;;;;;;5043383;28;20080;-79
2022/02/21 08:23:18;;;;;;;2.05;0.60;;;3.90;99.90;;;;;;5043134;28;20432;-80
2022/02/21 08:25:44;;;;;;;2.20;0.70;;;4.00;99.90;;;;;;5037385;28;20030;-80
2022/02/21 08:28:10;;;;;;;3.38;0.88;;;4.00;99.90;;;;;;5040475;28;20049;-80
2022/02/21 08:30:35;;;;;;;2.38;0.90;;;4.10;99.90;;;;;;5045402;28;20006;-80
2022/02/21 08:33:01;;;;;;;3.15;0.93;;;4.10;99.90;;;;;;5042111;28;20029;-80
2022/02/21 08:35:27;;;;;;;4.88;1.27;;;4.10;99.90;;;;;;5043642;28;20478;-82
2022/02/21 08:37:53;;;;;;;3.28;0.90;;;4.10;99.90;;;;;;5041956;28;20029;-80
2022/02/21 08:40:21;;;;;;;2.50;0.80;;;4.10;99.90;;;;;;5034246;28;20021;-79
2022/02/21 08:42:47;;;;;;;6.70;1.23;;;4.20;99.90;;;;;;5042903;28;20101;-81
2022/02/21 08:45:13;;;;;;;2.80;0.82;;;4.30;99.90;;;;;;5043854;28;20025;-79
2022/02/21 08:47:40;;;;;;;2.50;1.08;;;4.40;99.90;;;;;;5053228;22;20358;-80
2022/02/21 08:50:10;;;;;;;4.28;0.82;;;4.50;99.90;;;;;;5051772;28;20037;-82
2022/02/21 08:52:40;;;;;;;4.97;0.80;;;4.60;99.90;;;;;;5070645;28;20017;-83
2022/02/21 08:55:07;;;;;;;2.80;0.60;;;4.70;99.90;;;;;;5073009;28;20017;-83
2022/02/21 08:57:35;;;;;;;1.52;0.70;;;4.80;99.90;;;;;;5072803;28;20028;-83
2022/02/21 09:00:02;;;;;;;4.55;0.90;;;5.00;99.90;;;;;;5073126;28;20071;-83
2022/02/21 09:02:27;;;;;;;1.70;0.60;;;5.10;99.90;;;;;;5073457;28;20009;-82
2022/02/21 09:04:53;;;;;;;2.40;0.80;;;5.10;99.90;;;;;;5076863;28;20017;-84
2022/02/21 09:07:19;;;;;;;3.20;0.75;;;5.20;99.90;;;;;;5075092;28;20524;-82
2022/02/21 09:09:45;;;;;;;3.75;1.30;;;5.20;99.90;;;;;;5070812;28;20561;-83
2022/02/21 09:12:11;;;;;;;7.07;1.35;;;5.30;99.90;;;;;;5073178;28;20021;-82
2022/02/21 09:14:37;;;;;;;2.60;1.20;;;5.20;99.90;;;;;;5071435;28;20025;-83
2022/02/21 09:17:03;;;;;;;5.50;1.10;;;5.20;99.90;;;;;;5069064;28;20032;-82
2022/02/21 09:19:28;;;;;;;5.78;1.25;;;5.20;99.90;;;;;;5061289;28;20029;-85
2022/02/21 09:21:54;;;;;;;3.15;0.85;;;5.30;99.90;;;;;;5051331;28;20089;-82
2022/02/21 09:24:20;;;;;;;5.50;0.90;;;5.20;99.90;;;;;;5052014;28;20040;-80
2022/02/21 09:26:45;;;;;;;3.72;0.90;;;5.20;99.90;;;;;;5050979;28;20024;-79
2022/02/21 09:29:11;;;;;;;4.53;1.00;;;5.30;99.90;;;;;;5051251;28;20099;-80
2022/02/21 09:31:37;;;;;;;0.68;0.60;;;5.40;99.90;;;;;;5060698;28;20017;-81
2022/02/21 09:34:02;;;;;;;2.53;0.93;;;5.40;99.90;;;;;;5061328;28;20052;-80
2022/02/21 09:36:30;;;;;;;6.07;1.00;;;5.50;99.90;;;;;;5051524;28;20112;-83
2022/02/21 09:38:56;;;;;;;2.53;0.75;;;5.60;99.90;;;;;;5049247;28;20429;-82
2022/02/21 09:41:21;;;;;;;5.75;1.08;;;5.50;99.90;;;;;;5047271;28;20025;-81
2022/02/21 09:43:50;;;;;;;3.35;0.90;;;5.60;99.90;;;;;;5055542;28;20024;-82
2022/02/21 09:46:15;;;;;;;2.83;0.95;;;5.60;99.90;;;;;;5053036;28;20171;-81
2022/02/21 09:48:45;;;;;;;3.50;0.80;;;5.60;99.90;;;;;;5046745;28;20466;-83
2022/02/21 09:51:11;;;;;;;3.85;1.13;;;5.60;99.90;;;;;;5060293;28;20025;-80
2022/02/21 09:53:38;;;;;;;9.20;1.23;;;5.60;99.90;;;;;;5059407;28;20026;-87
2022/02/21 09:56:05;;;;;;;3.65;0.98;;;5.70;99.90;;;;;;5052118;28;20033;-82
2022/02/21 09:58:33;;;;;;;2.38;0.82;;;5.70;99.90;;;;;;5056378;28;20087;-81
2022/02/21 10:00:59;;;;;;;4.30;0.70;;;5.70;99.90;;;;;;5063432;28;20017;-82
2022/02/21 10:03:37;;;;;;;1.45;0.85;;;5.70;99.90;;;;;;5072648;28;20028;-86
2022/02/21 10:06:20;;;;;;;2.67;0.90;;;5.90;99.90;;;;;;5075034;28;20043;-86
2022/02/21 10:08:56;;;;;;;4.40;0.80;;;6.00;99.90;;;;;;5055844;28;20017;-89
2022/02/21 10:11:23;;;;;;;6.03;1.13;;;6.10;99.90;;;;;;5054751;28;20056;-80
2022/02/21 10:14:03;;;;;;;1.13;0.60;;;6.20;99.90;;;;;;5052350;28;20026;-80
2022/02/21 10:16:42;;;;;;;3.72;1.27;;;6.20;99.90;;;;;;5049763;28;20608;-80
2022/02/21 10:19:17;;;;;;;2.65;0.98;;;6.30;99.90;;;;;;5041214;28;20072;-81
2022/02/21 10:21:48;;;;;;;4.22;1.13;;;6.50;99.90;;;;;;5047239;28;20028;-80
2022/02/21 10:24:14;;;;;;;3.00;1.40;;;6.70;99.90;;;;;;5057832;28;20025;-80
2022/02/21 10:26:43;;;;;;;8.25;1.30;;;6.90;99.90;;;;;;5058111;28;20086;-82
2022/02/21 10:29:10;;;;;;;4.95;0.93;;;7.20;99.90;;;;;;5058064;28;20021;-81
2022/02/21 10:31:36;;;;;;;3.63;1.45;;;7.50;99.90;;;;;;5044781;28;20033;-82
2022/02/21 10:34:05;;;;;;;5.43;1.00;;;7.80;99.90;;;;;;5060669;28;20064;-79
2022/02/21 10:36:38;;;;;;;5.13;1.00;;;7.90;99.90;;;;;;5052929;28;20050;-81
2022/02/21 10:39:15;;;;;;;5.50;1.80;;;7.80;97.40;;;;;;5067772;28;20021;-82
2022/02/21 10:41:47;;;;;;;4.32;1.02;;;7.60;99.50;;;;;;5058757;28;20013;-84
2022/02/21 10:44:20;;;;;;;3.25;0.75;;;7.50;97.90;;;;;;5058615;28;20072;-83
2022/02/21 10:47:04;;;;;;;;;;;7.60;98.80;;;;;;5062365;28;20057;-83
2022/02/21 10:49:32;;;;;;;2.50;0.70;;;7.60;99.90;;;;;;5058382;28;19978;-83
2022/02/21 10:52:02;;;;;;;5.75;1.10;;;7.60;99.90;;;;;;5063350;28;20075;-84
2022/02/21 10:54:33;;;;;;;3.53;1.08;;;7.50;98.70;;;;;;5061516;28;20035;-83
2022/02/21 10:56:59;;;;;;;2.55;0.90;;;7.40;98.80;;;;;;5048255;28;20084;-85
2022/02/21 10:59:30;;;;;;;8.02;1.17;;;7.30;99.00;;;;;;5059245;28;20444;-86
2022/02/21 11:01:56;;;;;;;6.75;0.80;;;7.10;98.00;;;;;;5061348;28;20099;-86
2022/02/21 11:04:25;;;;;;;8.02;0.75;;;6.90;96.40;;;;;;5053006;28;20032;-86
2022/02/21 11:06:55;;;;;;;3.70;1.00;;;6.70;94.10;;;;;;5050916;28;20046;-85
2022/02/21 11:09:30;;;;;;;3.63;1.00;;;6.60;93.00;;;;;;5060206;28;20173;-81
2022/02/21 11:12:01;;;;;;;4.88;0.80;;;6.60;90.40;;;;;;5064342;28;20024;-81
2022/02/21 11:14:29;;;;;;;4.47;1.13;;;6.50;87.20;;;;;;5046726;28;20022;-81
2022/02/21 11:16:58;;;;;;;5.43;1.15;;;6.60;83.70;;;;;;5054168;28;20025;-80
2022/02/21 11:19:24;;;;;;;2.40;1.00;;;6.60;82.50;;;;;;5049293;28;20075;-82
2022/02/21 11:21:51;;;;;;;4.63;1.23;;;6.80;82.00;;;;;;5058392;28;20470;-82
2022/02/21 11:24:20;;;;;;;3.28;1.60;;;7.00;81.50;;;;;;5073168;28;20005;-82
2022/02/21 11:26:55;;;;;;;6.15;1.20;;;7.10;79.70;;;;;;5056381;28;20500;-81
2022/02/21 11:29:45;;;;;;;6.20;1.45;;;7.30;77.80;;;;;;5047645;28;20035;-81
2022/02/21 11:32:19;;;;;;;3.50;1.23;;;7.40;77.20;;;;;;5052453;28;20037;-82
2022/02/21 11:35:05;;;;;;;3.15;0.90;;;7.50;74.30;;;;;;5044452;28;20028;-81
2022/02/21 11:37:32;;;;;;;7.80;1.20;;;7.40;73.80;;;;;;5048148;28;20112;-81
2022/02/21 11:39:58;;;;;;;10.63;2.13;;;7.40;73.40;;;;;;5052960;28;20014;-82
2022/02/21 11:42:29;;;;;;;5.55;1.23;;;7.50;73.30;;;;;;5061382;28;20025;-82
2022/02/21 11:44:58;;;;;;;4.68;1.48;;;7.50;71.40;;;;;;5061999;28;20099;-83
2022/02/21 11:47:33;;;;;;;2.40;0.90;;;7.70;71.30;;;;;;5058565;28;20017;-82
2022/02/21 11:49:58;;;;;;;3.97;1.10;;;8.00;70.60;;;;;;5052181;28;20024;-82
2022/02/21 11:52:35;;;;;;;4.18;1.35;;;8.50;70.10;;;;;;5061582;28;20025;-83
2022/02/21 11:55:03;;;;;;;6.97;1.45;;;8.80;68.80;;;;;;5057067;28;20036;-82
2022/02/21 11:57:37;;;;;;;4.75;1.20;;;9.00;66.80;;;;;;5067564;28;20033;-83
2022/02/21 12:00:36;;;;;;;7.50;1.48;;;8.90;65.00;;;;;;5057792;28;20045;-85
2022/02/21 12:03:25;;;;;;;5.28;1.83;;;8.80;65.60;;;;;;5056410;28;20507;-85
2022/02/21 12:05:57;;;;;;;2.13;0.80;;;8.80;64.90;;;;;;5062106;28;20421;-82
2022/02/21 12:08:29;;;;;;;2.85;0.93;;;8.90;64.20;;;;;;5059138;28;20079;-82
2022/02/21 12:11:15;;;;;;;2.13;1.02;;;9.10;64.60;;;;;;5060003;28;20033;-82
2022/02/21 12:13:50;;;;;;;6.40;1.20;;;9.10;62.70;;;;;;5067074;28;20093;-82
2022/02/21 12:16:20;;;;;;;4.05;1.10;;;8.80;62.70;;;;;;5066106;28;20029;-82
2022/02/21 12:18:47;;;;;;;3.25;1.05;;;8.70;63.10;;;;;;5060647;28;20024;-82
2022/02/21 12:21:17;;;;;;;4.07;1.30;;;8.80;62.30;;;;;;5068262;28;20025;-83
2022/02/21 12:23:52;;;;;;;4.47;1.10;;;9.00;61.70;;;;;;5068262;28;20108;-82
2022/02/21 12:26:22;;;;;;;5.15;1.40;;;9.20;60.60;;;;;;5067089;28;20025;-83
2022/02/21 12:29:26;;;;;;;6.82;1.38;;;9.10;61.20;;;;;;5069444;28;20032;-82
2022/02/21 12:32:11;;;;;;;8.35;2.20;;;9.10;61.60;;;;;;5077019;28;20022;-81
2022/02/21 12:34:38;;;;;;;4.30;1.38;;;9.00;61.40;;;;;;5077884;28;20085;-82
2022/02/21 12:37:06;;;;;;;11.15;1.50;;;8.80;62.10;;;;;;5075581;28;20033;-82
2022/02/21 12:39:35;;;;;;;5.07;1.30;;;8.80;62.50;;;;;;5077889;28;20041;-82
2022/02/21 12:42:01;;;;;;;4.63;1.55;;;8.70;62.90;;;;;;5076330;28;20084;-81
2022/02/21 12:44:27;;;;;;;5.93;1.40;;;8.50;63.50;;;;;;5068270;28;20021;-81
2022/02/21 12:46:56;;;;;;;10.38;1.20;;;8.50;63.50;;;;;;5060247;28;20037;-82
2022/02/21 12:49:49;;;;;;;4.82;1.27;;;8.80;62.70;;;;;;5077753;28;20036;-82
2022/02/21 12:52:15;;;;;;;7.32;1.55;;;9.20;61.30;;;;;;5058607;28;20021;-82
2022/02/21 12:54:58;;;;;;;5.70;1.58;;;9.40;60.80;;;;;;5064083;28;20052;-81
2022/02/21 12:57:26;;;;;;;3.58;1.17;;;9.20;60.10;;;;;;5061342;28;20048;-83